Time;durP1;ratioP1;P1;durP2;ratioP2;P2;SDS_P1;SDS_P2;PMS_P1;PMS_P2;Temp;Humidity;BMP_temperature;BMP_pressure;BME280_temperature;BME280_humidity;BME280_pressure;Samples;Min_cycle;Max_cycle;Signal;HPM_P1;HPM_P2
2022/04/15 00:00:24;;;;;;;;;5.67;5.67;;;;;17.26;52.16;102049.81;5056919;28;45494;-51
2022/04/15 00:02:50;;;;;;;;;6.67;6.00;;;;;17.28;52.24;102055.91;5056909;28;45285;-42
2022/04/15 00:08:14;;;;;;;;;5.33;4.33;;;;;17.24;52.43;102046.47;5014495;28;45503;-52
2022/04/15 00:10:45;;;;;;;;;6.67;5.00;;;;;17.21;52.14;102051.13;5014388;28;45454;-51
2022/04/15 00:13:12;;;;;;;;;4.67;4.67;;;;;17.21;52.10;102048.44;5014534;28;45346;-44
2022/04/15 00:15:38;;;;;;;;;4.67;3.67;;;;;17.19;52.49;102050.47;5014237;28;46674;-44
2022/04/15 00:18:04;;;;;;;;;6.00;4.00;;;;;17.20;52.74;102045.94;5014159;28;45318;-43
2022/04/15 00:20:29;;;;;;;;;4.00;4.00;;;;;17.18;52.66;102050.59;5014341;28;45475;-45
2022/04/15 00:22:55;;;;;;;;;3.00;3.00;;;;;17.18;52.51;102055.97;5014613;28;45360;-52
2022/04/15 00:25:21;;;;;;;;;6.00;5.00;;;;;17.08;52.56;102039.13;5014261;28;47097;-46
2022/04/15 00:27:47;;;;;;;;;9.33;4.33;;;;;17.16;52.68;102052.63;5014138;28;45489;-51
2022/04/15 00:30:13;;;;;;;;;4.33;4.33;;;;;17.11;52.77;102047.72;5014348;28;45360;-46
2022/04/15 00:32:40;;;;;;;;;5.00;5.00;;;;;17.14;52.90;102049.22;5014699;28;45324;-50
2022/04/15 00:35:06;;;;;;;;;5.00;4.00;;;;;17.14;52.96;102054.63;5013623;28;46163;-44
2022/04/15 00:37:32;;;;;;;;;8.00;4.33;;;;;17.14;53.03;102046.53;5013761;28;45442;-45
2022/04/15 00:39:58;;;;;;;;;7.00;5.33;;;;;17.13;53.11;102039.50;5014151;28;45419;-43
2022/04/15 00:42:24;;;;;;;;;6.00;6.00;;;;;17.11;52.97;102042.34;5014201;28;45462;-43
2022/04/15 00:45:00;;;;;;;;;7.00;5.67;;;;;17.10;52.87;102045.16;5052802;28;45513;-43
2022/04/15 00:47:44;;;;;;;;;7.00;7.00;;;;;17.09;53.22;102044.34;5057183;28;45394;-43
2022/04/15 00:50:09;;;;;;;;;5.00;5.00;;;;;17.08;53.39;102049.88;5059762;28;45277;-44
2022/04/15 00:52:38;;;;;;;;;7.67;5.00;;;;;17.06;53.09;102050.00;5059923;28;45360;-45
2022/04/15 00:55:04;;;;;;;;;5.67;5.67;;;;;17.06;53.27;102052.69;5059679;28;45258;-49
2022/04/15 00:57:34;;;;;;;;;7.33;7.33;;;;;17.04;53.48;102054.72;5059346;28;45597;-45
2022/04/15 01:00:01;;;;;;;;;8.67;5.00;;;;;17.02;53.50;102045.13;5059623;28;45336;-44
2022/04/15 01:02:29;;;;;;;;;4.67;4.33;;;;;17.00;53.72;102047.13;5059944;28;45345;-53
2022/04/15 01:04:56;;;;;;;;;10.00;6.00;;;;;16.98;54.10;102055.38;5059360;28;46081;-48
2022/04/15 01:07:26;;;;;;;;;8.00;8.00;;;;;16.94;53.77;102052.13;5059330;28;45361;-43
2022/04/15 01:09:54;;;;;;;;;11.33;5.00;;;;;16.95;53.88;102053.81;5059777;28;45427;-47
2022/04/15 01:12:21;;;;;;;;;6.00;6.00;;;;;16.92;54.19;102045.22;5059503;28;45424;-49
2022/04/15 01:14:48;;;;;;;;;8.00;7.00;;;;;16.90;54.12;102056.13;5059123;28;46316;-50
2022/04/15 01:17:14;;;;;;;;;6.00;4.00;;;;;16.88;54.19;102052.75;5059389;28;45467;-46
2022/04/15 01:19:40;;;;;;;;;8.00;6.33;;;;;16.82;54.26;102047.16;5059192;28;45335;-43
2022/04/15 01:22:13;;;;;;;;;8.67;7.33;;;;;16.84;54.32;102050.53;5059245;28;45462;-50
2022/04/15 01:24:38;;;;;;;;;7.33;7.33;;;;;16.73;54.52;102042.69;5058894;28;46197;-45
2022/04/15 01:27:08;;;;;;;;;10.67;8.33;;;;;16.80;54.67;102060.75;5058841;28;45424;-49
2022/04/15 01:29:40;;;;;;;;;12.00;11.00;;;;;16.77;54.72;102060.22;5059249;28;45293;-51
2022/04/15 01:32:07;;;;;;;;;9.00;7.00;;;;;16.70;54.71;102055.44;5059347;28;45429;-47
2022/04/15 01:34:34;;;;;;;;;12.33;7.67;;;;;16.73;55.17;102061.50;5058917;28;47259;-47
2022/04/15 01:37:00;;;;;;;;;12.00;7.67;;;;;16.72;55.10;102057.94;5058819;28;45552;-50
2022/04/15 01:39:27;;;;;;;;;8.67;8.67;;;;;16.69;55.13;102053.75;5058892;28;45450;-51
2022/04/15 01:41:53;;;;;;;;;7.67;7.00;;;;;16.60;55.36;102043.94;5059233;28;45348;-45
2022/04/15 01:44:18;;;;;;;;;10.00;8.00;;;;;16.64;55.20;102058.75;5058718;28;46323;-45
2022/04/15 01:46:44;;;;;;;;;11.67;8.00;;;;;16.59;55.37;102046.75;5058681;28;45271;-46
2022/04/15 01:49:09;;;;;;;;;11.00;7.33;;;;;16.53;55.14;102045.53;5059068;28;45336;-45
2022/04/15 01:51:35;;;;;;;;;10.00;7.00;;;;;16.55;55.34;102056.13;5058933;28;45411;-43
2022/04/15 01:54:02;;;;;;;;;8.00;5.00;;;;;16.56;55.50;102056.00;5058567;28;46062;-53
2022/04/15 01:56:27;;;;;;;;;7.00;5.67;;;;;16.54;55.25;102055.28;5058638;28;45466;-50
2022/04/15 01:58:53;;;;;;;;;8.00;8.00;;;;;16.53;55.53;102058.13;5057879;28;45395;-45
2022/04/15 02:01:19;;;;;;;;;10.00;9.00;;;;;16.49;55.57;102056.75;5059011;28;45377;-48
2022/04/15 02:03:44;;;;;;;;;6.67;6.67;;;;;16.49;55.41;102052.22;5058375;28;46270;-43
2022/04/15 02:06:10;;;;;;;;;9.00;8.00;;;;;16.46;55.85;102052.53;5058705;28;45433;-49
2022/04/15 02:08:35;;;;;;;;;7.67;6.00;;;;;16.45;55.94;102053.53;5058487;28;45484;-46
2022/04/15 02:11:00;;;;;;;;;6.67;6.67;;;;;16.38;56.04;102045.22;5058814;28;45444;-49
2022/04/15 02:13:26;;;;;;;;;10.33;9.00;;;;;16.38;56.01;102047.91;5057051;28;45466;-44
2022/04/15 02:15:51;;;;;;;;;6.33;6.00;;;;;16.38;56.06;102052.44;5058436;28;45350;-52
2022/04/15 02:18:17;;;;;;;;;8.67;6.00;;;;;16.33;56.27;102052.91;5058640;28;45270;-48
2022/04/15 02:20:42;;;;;;;;;8.33;8.33;;;;;16.32;56.39;102053.91;5058617;28;45360;-52
2022/04/15 02:23:08;;;;;;;;;9.00;8.00;;;;;16.33;56.43;102054.75;5057852;28;45496;-43
2022/04/15 02:25:33;;;;;;;;;10.33;7.00;;;;;16.30;56.05;102057.72;5058232;28;45334;-42
2022/04/15 02:27:58;;;;;;;;;8.67;6.67;;;;;16.27;56.03;102055.38;5058376;28;45317;-51
2022/04/15 02:30:24;;;;;;;;;10.00;9.00;;;;;16.22;56.36;102058.47;5058403;28;45377;-53
2022/04/15 02:32:49;;;;;;;;;11.00;9.00;;;;;16.21;56.54;102065.69;5057931;28;46411;-44
2022/04/15 02:35:14;;;;;;;;;12.00;8.00;;;;;16.20;56.73;102055.94;5057890;28;45523;-43
2022/04/15 02:37:40;;;;;;;;;10.67;8.33;;;;;16.14;56.55;102053.06;5058237;28;45343;-42
2022/04/15 02:40:06;;;;;;;;;9.33;6.00;;;;;16.04;56.67;102045.03;5058262;28;45352;-52
2022/04/15 02:42:32;;;;;;;;;11.33;7.33;;;;;16.12;56.95;102055.88;5057768;28;45423;-46
2022/04/15 02:44:58;;;;;;;;;9.00;7.33;;;;;16.10;56.90;102051.66;5057868;28;45205;-53
2022/04/15 02:47:23;;;;;;;;;7.00;7.00;;;;;16.09;56.72;102064.22;5058032;28;45350;-52
2022/04/15 02:49:50;;;;;;;;;7.00;7.00;;;;;16.07;56.90;102068.91;5058030;28;45375;-45
2022/04/15 02:52:15;;;;;;;;;10.00;8.00;;;;;16.04;56.90;102062.97;5057612;28;46977;-46
2022/04/15 02:54:41;;;;;;;;;10.33;9.33;;;;;15.93;57.07;102050.63;5057466;28;45433;-49
2022/04/15 02:57:07;;;;;;;;;11.67;10.67;;;;;16.00;57.13;102057.06;5057767;28;45213;-43
2022/04/15 02:59:32;;;;;;;;;11.33;9.00;;;;;15.98;56.95;102063.59;5057971;28;45376;-43
2022/04/15 03:01:58;;;;;;;;;7.67;7.00;;;;;15.94;56.93;102058.53;5057689;28;45416;-44
2022/04/15 03:04:23;;;;;;;;;9.33;9.00;;;;;15.94;56.89;102063.06;5057877;28;45432;-43
2022/04/15 03:06:49;;;;;;;;;7.00;6.33;;;;;15.94;56.99;102063.06;5057851;28;45414;-44
2022/04/15 03:09:14;;;;;;;;;10.00;9.00;;;;;15.93;57.17;102061.38;5057180;28;45503;-45
2022/04/15 03:11:39;;;;;;;;;10.00;10.00;;;;;15.91;57.21;102061.50;5056767;28;46165;-43
2022/04/15 03:14:05;;;;;;;;;10.00;8.33;;;;;15.91;57.39;102064.19;5057706;28;45399;-46
2022/04/15 03:16:31;;;;;;;;;12.00;9.00;;;;;15.89;57.28;102066.19;5058085;28;45316;-44
2022/04/15 03:18:57;;;;;;;;;10.00;10.00;;;;;15.88;56.96;102063.63;5057991;28;45339;-44
2022/04/15 03:21:22;;;;;;;;;13.00;10.33;;;;;15.86;57.22;102057.59;5057691;28;46178;-44
2022/04/15 03:23:47;;;;;;;;;15.00;10.00;;;;;15.84;57.34;102065.75;5057718;28;45219;-44
2022/04/15 03:26:13;;;;;;;;;14.00;11.00;;;;;15.83;57.13;102066.75;5059167;28;45388;-42
2022/04/15 03:28:39;;;;;;;;;12.00;9.67;;;;;15.81;57.36;102070.59;5058815;28;45325;-50
2022/04/15 03:31:05;;;;;;;;;10.00;10.00;;;;;15.80;57.41;102068.88;5058126;28;46961;-45
2022/04/15 03:33:32;;;;;;;;;9.00;9.00;;;;;15.79;57.50;102070.72;5057714;28;45308;-43
2022/04/15 03:35:58;;;;;;;;;12.33;11.33;;;;;15.76;57.50;102076.41;5058358;28;45345;-43
2022/04/15 03:38:23;;;;;;;;;11.00;9.00;;;;;15.68;57.41;102061.06;5057589;28;45427;-44
2022/04/15 03:40:49;;;;;;;;;10.33;8.67;;;;;15.75;57.41;102071.19;5057003;28;45379;-43
2022/04/15 03:43:14;;;;;;;;;13.33;10.33;;;;;15.70;57.58;102067.09;5055614;28;45452;-43
2022/04/15 03:45:40;;;;;;;;;8.67;8.67;;;;;15.68;57.71;102070.94;5057204;28;45480;-44
2022/04/15 03:48:05;;;;;;;;;11.33;10.00;;;;;15.70;57.84;102075.16;5057394;28;45403;-46
2022/04/15 03:50:31;;;;;;;;;17.67;11.67;;;;;15.59;57.78;102059.22;5056717;28;46272;-56
2022/04/15 03:52:56;;;;;;;;;12.00;10.33;;;;;15.65;57.96;102071.22;5056947;28;45355;-44
2022/04/15 03:55:24;;;;;;;;;14.00;11.00;;;;;15.64;57.82;102072.19;5056919;28;45521;-43
2022/04/15 03:57:50;;;;;;;;;18.67;12.00;;;;;15.62;57.87;102072.31;5056991;28;45483;-46
2022/04/15 04:00:18;;;;;;;;;11.33;10.33;;;;;15.61;57.96;102075.16;5055280;28;47152;-45
2022/04/15 04:02:48;;;;;;;;;17.00;10.00;;;;;15.60;57.85;102073.50;5056602;28;45378;-46
2022/04/15 04:05:14;;;;;;;;;13.00;11.67;;;;;15.58;57.97;102083.50;5056746;28;45305;-44
2022/04/15 04:07:40;;;;;;;;;15.00;11.00;;;;;15.57;58.02;102074.63;5056794;28;45325;-43
2022/04/15 04:10:06;;;;;;;;;13.33;13.33;;;;;15.57;58.05;102081.81;5056260;28;45296;-42
2022/04/15 04:12:33;;;;;;;;;10.00;10.00;;;;;15.55;57.96;102073.94;5056533;28;45240;-44
2022/04/15 04:15:00;;;;;;;;;11.00;10.00;;;;;15.55;58.02;102084.66;5056311;28;45356;-46
2022/04/15 04:17:25;;;;;;;;;12.00;10.00;;;;;15.51;58.36;102085.94;5056835;28;45428;-47
2022/04/15 04:19:50;;;;;;;;;17.33;9.33;;;;;15.48;58.33;102088.91;5056316;28;46264;-41
2022/04/15 04:22:16;;;;;;;;;8.00;8.00;;;;;15.50;58.39;102080.69;5058950;28;45364;-42
2022/04/15 04:24:41;;;;;;;;;10.00;9.00;;;;;15.48;58.28;102083.53;5059960;28;45439;-42
2022/04/15 04:27:06;;;;;;;;;11.67;10.00;;;;;15.48;58.36;102087.06;5060365;28;45367;-42
2022/04/15 04:29:32;;;;;;;;;10.67;9.33;;;;;15.47;58.47;102090.75;5060051;28;45396;-45
2022/04/15 04:31:57;;;;;;;;;12.33;9.00;;;;;15.44;58.57;102080.31;5060055;28;45314;-42
2022/04/15 04:34:22;;;;;;;;;13.00;12.00;;;;;15.44;58.56;102092.88;5058728;28;45221;-42
2022/04/15 04:36:48;;;;;;;;;10.67;8.67;;;;;15.44;58.60;102098.22;5060208;28;45466;-49
2022/04/15 04:39:13;;;;;;;;;16.00;11.67;;;;;15.42;58.33;102097.50;5059875;28;46088;-43
2022/04/15 04:41:39;;;;;;;;;10.33;10.33;;;;;15.41;58.69;102103.88;5059815;28;45301;-42
2022/04/15 04:44:05;;;;;;;;;12.33;10.33;;;;;15.31;58.75;102082.47;5059871;28;45319;-42
2022/04/15 04:46:32;;;;;;;;;11.00;9.33;;;;;15.30;59.05;102087.97;5059987;28;45250;-43
2022/04/15 04:48:57;;;;;;;;;15.67;12.67;;;;;15.39;59.00;102109.41;5059588;28;46301;-43
2022/04/15 04:51:23;;;;;;;;;14.67;11.67;;;;;15.37;59.12;102108.69;5059737;28;45324;-43
2022/04/15 04:53:49;;;;;;;;;14.00;11.00;;;;;15.28;59.25;102103.34;5059776;28;45555;-42
2022/04/15 04:56:15;;;;;;;;;9.33;8.33;;;;;15.35;59.45;102120.56;5059717;28;45478;-43
2022/04/15 04:58:41;;;;;;;;;13.00;12.00;;;;;15.34;59.70;102117.03;5059347;28;46223;-46
2022/04/15 05:01:06;;;;;;;;;11.67;11.67;;;;;15.33;59.40;102119.84;5059481;28;45461;-44
2022/04/15 05:03:32;;;;;;;;;15.00;11.00;;;;;15.32;59.31;102123.53;5059592;28;45289;-44
2022/04/15 05:05:57;;;;;;;;;13.33;10.67;;;;;15.31;59.52;102124.50;5059705;28;45384;-44
2022/04/15 05:08:23;;;;;;;;;16.67;12.67;;;;;15.30;59.69;102129.03;5059378;28;46276;-43
2022/04/15 05:10:48;;;;;;;;;13.67;10.00;;;;;15.30;59.90;102126.34;5059376;28;45612;-43
2022/04/15 05:13:13;;;;;;;;;12.67;12.00;;;;;15.30;59.88;102131.72;5059489;28;45241;-43
2022/04/15 05:15:39;;;;;;;;;17.33;12.67;;;;;15.31;60.08;102129.88;5059688;28;45286;-44
2022/04/15 05:18:05;;;;;;;;;11.67;11.67;;;;;15.30;59.93;102139.75;5059363;28;46975;-44
2022/04/15 05:20:30;;;;;;;;;13.00;11.00;;;;;15.30;60.01;102134.41;5059211;28;45420;-44
2022/04/15 05:22:56;;;;;;;;;13.00;11.33;;;;;15.28;60.22;102138.19;5059340;28;45291;-45
2022/04/15 05:25:21;;;;;;;;;16.33;12.00;;;;;15.30;60.27;102145.13;5059247;28;45843;-44
2022/04/15 05:27:46;;;;;;;;;12.00;12.00;;;;;15.30;60.21;102142.44;5058567;28;45381;-43
2022/04/15 05:30:12;;;;;;;;;19.00;12.33;;;;;15.32;60.16;102144.97;5059442;28;45325;-45
2022/04/15 05:32:37;;;;;;;;;15.67;11.00;;;;;15.32;60.33;102147.66;5058384;28;45422;-44
2022/04/15 05:35:03;;;;;;;;;13.00;12.67;;;;;15.33;60.17;102149.34;5059105;28;45316;-45
2022/04/15 05:37:28;;;;;;;;;15.67;11.67;;;;;15.33;59.84;102147.50;5058836;28;46017;-48
2022/04/15 05:39:54;;;;;;;;;14.67;10.00;;;;;15.36;59.87;102154.41;5058904;28;45466;-42
2022/04/15 05:42:19;;;;;;;;;16.33;12.00;;;;;15.35;59.81;102150.91;5058990;28;45330;-41
2022/04/15 05:44:45;;;;;;;;;15.00;13.33;;;;;15.36;60.02;102155.25;5059137;28;45477;-42
2022/04/15 05:47:10;;;;;;;;;14.33;14.33;;;;;15.37;59.75;102158.78;5059203;28;47153;-42
2022/04/15 05:49:35;;;;;;;;;12.33;12.33;;;;;15.38;59.80;102157.78;5058984;28;45328;-45
2022/04/15 05:52:02;;;;;;;;;19.00;15.33;;;;;15.38;59.98;102157.78;5059494;28;45372;-47
2022/04/15 05:54:27;;;;;;;;;18.00;16.67;;;;;15.39;59.81;102159.50;5057876;28;45424;-43
2022/04/15 05:56:53;;;;;;;;;17.00;13.67;;;;;15.39;59.94;102159.50;5058388;28;45469;-44
2022/04/15 05:59:21;;;;;;;;;10.67;10.33;;;;;15.40;59.88;102156.66;5058729;28;45330;-45
2022/04/15 06:01:52;;;;;;;;;9.67;7.33;;;;;15.43;59.60;102155.53;5058865;28;45265;-45
2022/04/15 06:04:18;;;;;;;;;14.33;12.00;;;;;15.46;59.66;102168.63;5059038;28;45405;-46
2022/04/15 06:06:43;;;;;;;;;16.33;13.00;;;;;15.48;59.75;102170.19;5058634;28;45414;-45
2022/04/15 06:09:09;;;;;;;;;15.00;12.33;;;;;15.52;59.50;102170.75;5058563;28;45252;-44
2022/04/15 06:11:34;;;;;;;;;16.00;14.00;;;;;15.54;59.57;102174.13;5058734;28;45637;-43
2022/04/15 06:14:01;;;;;;;;;17.00;12.33;;;;;15.57;59.48;102178.38;5059035;28;45483;-44
2022/04/15 06:16:31;;;;;;;;;12.00;11.00;;;;;15.61;59.17;102183.31;5058411;28;45568;-44
2022/04/15 06:18:57;;;;;;;;;19.67;12.33;;;;;15.66;59.16;102185.59;5058565;28;45314;-46
2022/04/15 06:21:22;;;;;;;;;17.00;14.00;;;;;15.73;59.30;102183.19;5058622;28;45479;-44
2022/04/15 06:23:48;;;;;;;;;12.67;10.67;;;;;15.80;58.89;102189.63;5058893;28;45202;-43
2022/04/15 06:26:13;;;;;;;;;14.33;12.67;;;;;15.84;59.00;102178.47;5058112;28;46470;-46
2022/04/15 06:28:38;;;;;;;;;18.67;13.67;;;;;15.89;58.64;102184.25;5058188;28;45285;-45
2022/04/15 06:31:04;;;;;;;;;17.00;13.00;;;;;15.98;58.41;102184.38;5058637;28;45374;-46
2022/04/15 06:33:29;;;;;;;;;13.33;13.33;;;;;16.03;58.18;102190.13;5058651;28;45393;-44
2022/04/15 06:35:55;;;;;;;;;13.00;11.67;;;;;15.99;58.16;102175.31;5058144;28;46007;-46
2022/04/15 06:38:20;;;;;;;;;14.00;12.00;;;;;16.10;57.71;102192.09;5058268;28;45309;-43
2022/04/15 06:40:45;;;;;;;;;19.33;15.00;;;;;16.12;57.73;102191.94;5058129;28;45669;-44
2022/04/15 06:43:11;;;;;;;;;14.00;13.33;;;;;16.16;57.73;102191.50;5058012;28;45371;-46
2022/04/15 06:45:36;;;;;;;;;12.00;12.00;;;;;16.14;57.65;102192.66;5057821;28;45230;-44
2022/04/15 06:48:03;;;;;;;;;18.67;12.33;;;;;16.25;57.60;102192.44;5057967;28;45390;-46
2022/04/15 06:50:30;;;;;;;;;12.00;12.00;;;;;16.33;57.40;102202.44;5058028;28;45359;-44
2022/04/15 06:52:56;;;;;;;;;14.00;12.33;;;;;16.43;56.96;102203.22;5056676;28;45511;-46
2022/04/15 06:55:21;;;;;;;;;15.33;13.00;;;;;16.52;56.14;102199.66;5057852;28;46174;-44
2022/04/15 06:57:46;;;;;;;;;12.67;12.67;;;;;16.63;56.47;102193.22;5057263;28;45373;-45
2022/04/15 07:00:13;;;;;;;;;11.00;11.00;;;;;16.75;55.83;102200.09;5058066;28;45303;-47
2022/04/15 07:02:39;;;;;;;;;14.00;11.67;;;;;16.88;55.01;102199.75;5057915;28;45384;-44
2022/04/15 07:05:09;;;;;;;;;17.00;13.67;;;;;17.05;54.82;102195.38;5057199;28;45682;-44
2022/04/15 07:07:37;;;;;;;;;13.67;11.00;;;;;17.34;54.07;102195.13;5057661;28;45499;-45
2022/04/15 07:10:05;;;;;;;;;15.33;13.00;;;;;18.10;53.13;102200.69;5057803;28;45289;-46
2022/04/15 07:12:31;;;;;;;;;16.00;13.00;;;;;19.22;50.44;102196.00;5057564;28;45313;-46
2022/04/15 07:14:57;;;;;;;;;11.00;9.00;;;;;19.86;49.00;102197.81;5057385;28;46113;-47
2022/04/15 07:17:23;;;;;;;;;13.67;12.00;;;;;20.40;47.03;102202.53;5057471;28;45334;-43
2022/04/15 07:19:48;;;;;;;;;11.33;10.33;;;;;21.39;45.35;102198.19;5057792;28;45368;-45
2022/04/15 07:22:20;;;;;;;;;13.33;12.00;;;;;21.88;44.93;102189.59;5056865;28;45311;-45
2022/04/15 07:24:47;;;;;;;;;11.00;11.00;;;;;21.89;43.88;102194.81;5056460;28;45475;-46
2022/04/15 07:27:12;;;;;;;;;13.25;11.50;;;;;21.95;44.09;102195.91;5057100;28;45268;-44
2022/04/15 07:29:38;;;;;;;;;12.50;12.00;;;;;22.25;43.45;102193.22;5057131;28;45405;-46
2022/04/15 07:32:04;;;;;;;;;15.75;12.75;;;;;22.94;42.12;102204.53;5057685;28;45455;-47
2022/04/15 07:34:29;;;;;;;;;13.75;11.00;;;;;23.61;40.71;102195.09;5057315;28;46379;-46
2022/04/15 07:36:56;;;;;;;;;10.50;10.25;;;;;24.20;38.89;102196.53;5057007;28;45345;-45
2022/04/15 07:39:23;;;;;;;;;11.50;10.50;;;;;24.47;38.57;102198.34;5055313;28;45528;-44
2022/04/15 07:41:48;;;;;;;;;15.75;10.75;;;;;24.49;38.09;102188.09;5049165;28;45569;-46
2022/04/15 07:44:15;;;;;;;;;9.50;9.25;;;;;24.52;38.73;102195.00;5049808;28;46432;-44
2022/04/15 07:46:42;;;;;;;;;13.40;11.00;;;;;24.72;37.74;102197.78;5054295;28;45439;-45
2022/04/15 07:49:08;;;;;;;;;15.60;11.80;;;;;25.49;36.71;102196.44;5054531;28;45459;-45
2022/04/15 07:51:35;;;;;;;;;13.25;11.00;;;;;26.58;34.66;102199.31;5054847;28;45460;-44
2022/04/15 07:54:02;;;;;;;;;9.00;9.00;;;;;27.38;34.13;102187.88;5054429;28;45490;-43
2022/04/15 07:56:28;;;;;;;;;13.20;11.80;;;;;28.04;32.13;102191.88;5053882;28;45498;-41
2022/04/15 07:58:53;;;;;;;;;9.75;9.75;;;;;28.53;31.90;102179.91;5056565;28;45388;-43
2022/04/15 08:01:20;;;;;;;;;8.75;7.75;;;;;29.06;30.82;102192.00;5057028;28;45391;-44
2022/04/15 08:03:46;;;;;;;;;11.40;8.00;;;;;29.45;29.01;102190.50;5056455;28;45527;-43
2022/04/15 08:06:12;;;;;;;;;8.60;6.60;;;;;29.56;28.94;102183.38;5056527;28;45329;-44
2022/04/15 08:08:38;;;;;;;;;10.20;7.40;;;;;29.48;28.85;102184.53;5056844;28;45381;-44
2022/04/15 08:11:03;;;;;;;;;7.00;7.00;;;;;29.33;28.84;102182.28;5056650;28;45531;-42
2022/04/15 08:13:29;;;;;;;;;8.25;5.75;;;;;29.28;31.83;102184.88;5056078;28;46087;-44
2022/04/15 08:15:55;;;;;;;;;7.00;7.00;;;;;29.24;29.11;102196.56;5056463;28;45393;-45
2022/04/15 08:18:21;;;;;;;;;8.50;7.50;;;;;29.22;29.46;102196.81;5056748;28;45377;-46
2022/04/15 08:20:47;;;;;;;;;10.80;8.80;;;;;29.25;29.77;102198.25;5056664;28;45393;-43
2022/04/15 08:23:13;;;;;;;;;9.25;6.00;;;;;29.45;28.77;102195.97;5056172;28;45402;-45
2022/04/15 08:25:38;;;;;;;;;7.75;5.75;;;;;29.62;29.32;102187.91;5056081;28;45381;-45
2022/04/15 08:28:05;;;;;;;;;9.50;7.50;;;;;29.89;29.03;102193.75;5056076;28;45700;-47
2022/04/15 08:30:33;;;;;;;;;9.00;6.80;;;;;30.14;28.11;102196.19;5056771;28;45532;-49
2022/04/15 08:32:59;;;;;;;;;6.00;6.00;;;;;30.47;28.19;102198.28;5056092;28;46161;-44
2022/04/15 08:35:25;;;;;;;;;9.20;8.00;;;;;30.76;27.30;102187.28;5055902;28;45387;-44
2022/04/15 08:37:50;;;;;;;;;6.75;5.00;;;;;31.12;27.71;102188.75;5055997;28;45389;-47
2022/04/15 08:40:15;;;;;;;;;8.00;8.00;;;;;31.52;26.97;102190.50;5056400;28;45434;-42
2022/04/15 08:42:42;;;;;;;;;6.75;6.75;;;;;32.34;25.63;102197.13;5056231;28;45367;-54
2022/04/15 08:45:08;;;;;;;;;7.80;6.60;;;;;33.93;23.55;102198.28;5054467;28;45481;-48
2022/04/15 08:47:36;;;;;;;;;6.00;5.00;;;;;35.76;22.20;102202.41;5056261;28;45370;-49
2022/04/15 08:50:06;;;;;;;;;3.60;3.60;;;;;36.88;20.20;102195.50;5056298;28;45594;-44
2022/04/15 08:52:32;;;;;;;;;3.40;3.40;;;;;38.23;19.41;102200.25;5055768;28;46852;-45
2022/04/15 08:55:01;;;;;;;;;4.60;4.60;;;;;39.27;18.04;102197.25;5056120;28;45424;-45
2022/04/15 08:57:27;;;;;;;;;3.40;3.00;;;;;40.04;19.44;102204.13;5055658;28;45376;-48
2022/04/15 08:59:53;;;;;;;;;4.60;4.60;;;;;40.65;16.19;102194.41;5055837;28;45427;-46
2022/04/15 09:02:37;;;;;;;;;4.50;4.50;;;;;41.41;17.01;102194.44;5055967;28;46151;-51
2022/04/15 09:05:06;;;;;;;;;2.80;2.80;;;;;41.67;16.79;102202.91;5055619;28;45389;-45
2022/04/15 09:07:34;;;;;;;;;4.40;3.00;;;;;41.97;15.57;102212.41;5055908;28;45271;-50
2022/04/15 09:10:01;;;;;;;;;4.40;4.40;;;;;42.55;16.03;102204.78;5059074;28;45388;-43
2022/04/15 09:12:35;;;;;;;;;4.00;2.20;;;;;43.04;15.56;102211.00;5059076;28;46548;-51
2022/04/15 09:15:12;;;;;;;;;3.20;2.20;;;;;43.09;15.07;102208.06;5058734;28;45342;-45
2022/04/15 09:17:41;;;;;;;;;6.00;5.40;;;;;43.42;15.03;102211.06;5059294;28;45403;-52
2022/04/15 09:20:09;;;;;;;;;5.00;4.20;;;;;43.83;15.12;102210.41;5059498;28;45458;-53
2022/04/15 09:22:35;;;;;;;;;3.60;3.60;;;;;44.31;14.23;102202.72;5058948;28;47034;-44
2022/04/15 09:25:02;;;;;;;;;4.40;3.80;;;;;44.93;13.67;102207.47;5059129;28;45225;-44
2022/04/15 09:27:28;;;;;;;;;4.00;2.80;;;;;45.33;13.00;102214.47;5059359;28;45527;-52
2022/04/15 09:29:57;;;;;;;;;4.80;4.80;;;;;45.62;12.62;102214.28;5058877;28;45542;-42
2022/04/15 09:32:24;;;;;;;;;3.20;3.00;;;;;45.96;13.86;102220.59;5058633;28;46984;-50
2022/04/15 09:34:59;;;;;;;;;4.40;2.20;;;;;46.23;12.72;102216.22;5058948;28;45545;-43
2022/04/15 09:37:27;;;;;;;;;7.20;3.00;;;;;46.57;12.01;102212.06;5058835;28;45535;-44
2022/04/15 09:40:18;;;;;;;;;2.80;2.80;;;;;46.79;13.25;102207.84;5059090;28;45330;-44
2022/04/15 09:42:55;;;;;;;;;4.40;4.40;;;;;47.16;11.98;102205.66;5058681;28;45553;-43
2022/04/15 09:45:22;;;;;;;;;3.00;3.00;;;;;47.61;11.62;102203.56;5058628;28;45383;-47
2022/04/15 09:47:56;;;;;;;;;4.00;4.00;;;;;47.88;11.32;102204.63;5058721;28;45323;-44
2022/04/15 09:50:35;;;;;;;;;3.60;3.20;;;;;48.23;11.72;102202.63;5058954;28;45308;-49
2022/04/15 09:53:09;;;;;;;;;5.60;5.20;;;;;48.85;10.58;102207.53;5058419;28;45773;-45
2022/04/15 09:55:36;;;;;;;;;3.20;3.20;;;;;49.19;11.03;102194.44;5058547;28;45498;-46
2022/04/15 09:58:12;;;;;;;;;4.60;4.00;;;;;49.42;10.91;102205.72;5058273;28;45486;-42
2022/04/15 10:00:40;;;;;;;;;2.60;2.60;;;;;49.72;10.28;102207.81;5058309;28;45360;-44
2022/04/15 10:03:08;;;;;;;;;3.20;3.20;;;;;50.03;9.51;102198.19;5058500;28;46158;-43
2022/04/15 10:05:36;;;;;;;;;2.80;2.80;;;;;50.22;9.39;102200.88;5058380;28;45416;-43
2022/04/15 10:08:02;;;;;;;;;1.80;1.80;;;;;50.36;12.78;102198.25;5058483;28;45434;-44
2022/04/15 10:10:30;;;;;;;;;2.80;2.80;;;;;50.38;9.83;102204.31;5058467;28;45321;-44
2022/04/15 10:12:59;;;;;;;;;2.00;1.00;;;;;50.48;9.88;102187.84;5058184;28;47215;-46
2022/04/15 10:15:25;;;;;;;;;4.00;4.00;;;;;50.78;10.25;102190.59;5057987;28;45463;-45
2022/04/15 10:17:51;;;;;;;;;2.00;2.00;;;;;50.68;10.27;102197.81;5058356;28;45345;-47
2022/04/15 10:20:16;;;;;;;;;2.80;2.80;;;;;50.76;10.41;102185.34;5057994;28;45313;-44
2022/04/15 10:22:43;;;;;;;;;3.50;3.00;;;;;50.59;9.41;102183.94;5058348;28;45392;-49
2022/04/15 10:25:09;;;;;;;;;2.80;2.80;;;;;50.59;9.88;102183.94;5058109;28;45360;-44
2022/04/15 10:27:34;;;;;;;;;2.40;2.40;;;;;50.59;10.38;102185.97;5057993;28;45237;-44
2022/04/15 10:30:01;;;;;;;;;1.50;1.50;;;;;50.46;9.23;102184.59;5058339;28;45504;-44
2022/04/15 10:32:27;;;;;;;;;2.60;2.20;;;;;50.59;9.50;102185.97;5057616;28;46392;-46
2022/04/15 10:34:52;;;;;;;;;2.50;2.50;;;;;50.64;9.27;102185.63;5057920;28;45655;-44
2022/04/15 10:37:53;;;;;;;;;2.00;2.00;;;;;50.52;9.64;102189.53;5057949;28;45403;-46
2022/04/15 10:40:23;;;;;;;;;4.20;4.20;;;;;50.84;9.94;102183.41;5057911;28;45485;-44
2022/04/15 10:42:48;;;;;;;;;4.00;4.00;;;;;51.08;9.42;102179.19;5057745;28;46071;-49
2022/04/15 10:45:34;;;;;;;;;3.75;3.75;;;;;50.80;8.91;102174.03;5057701;28;45309;-53
2022/04/15 10:48:00;;;;;;;;;1.80;1.80;;;;;50.97;9.33;102181.94;5057906;28;45289;-46
2022/04/15 10:50:28;;;;;;;;;3.00;3.00;;;;;50.99;9.60;102170.19;5058171;28;45366;-46
2022/04/15 10:53:18;;;;;;;;;2.00;2.00;;;;;49.75;10.58;102178.78;5057647;28;46042;-47
2022/04/15 10:55:52;;;;;;;;;1.20;1.20;;;;;45.92;11.42;102183.09;5057563;28;45496;-46
2022/04/15 10:58:17;;;;;;;;;0.40;0.40;;;;;46.93;11.56;102182.91;5057667;28;45400;-53
2022/04/15 11:03:29;;;;;;;;;2.20;2.20;;;;;48.60;9.78;102167.50;5057633;28;45836;-44
2022/04/15 11:06:00;;;;;;;;;3.20;3.20;;;;;48.99;10.20;102171.06;5058012;28;45344;-47
2022/04/15 11:08:43;;;;;;;;;1.40;1.40;;;;;49.44;10.05;102170.22;5058003;28;45304;-44
2022/04/15 11:11:08;;;;;;;;;1.40;1.40;;;;;49.73;9.47;102167.84;5058254;28;45403;-46
2022/04/15 11:13:39;;;;;;;;;1.00;1.00;;;;;50.14;8.80;102168.81;5057517;28;45262;-47
2022/04/15 11:16:10;;;;;;;;;1.00;1.00;;;;;50.43;8.78;102163.50;5057499;28;45461;-48
2022/04/15 11:18:48;;;;;;;;;1.20;1.20;;;;;50.42;10.71;102156.22;5058016;28;45233;-45
2022/04/15 11:21:19;;;;;;;;;2.60;2.60;;;;;50.60;9.05;102162.91;5057946;28;45347;-52
2022/04/15 11:23:55;;;;;;;;;1.60;1.20;;;;;50.01;9.72;102150.44;5057452;28;47184;-49